Budapest Ferihegy, Hungary

9:04 PM CET on December 17, 2014 (GMT +0100)
Budapest | Change Station
CLOSE
Current Station
Personal Weather Station
Location: Budapest, BUDAPEST
Elevation: 417 ft
Nearby Weather Stations

Elev 417 ft 47.42 °N, 19.21 °E | Updated 1 minute ago

Clear
Clear
33.3 °F
Feels Like 33 °F
N
0.0
Wind Variable Wind from NW
Gusts 0.0 mph

Today
High -- | Low -- °F
--% Chance of Precip.
Yesterday
High -- | Low -- °F
Precip. -- in
7:24 AM 3:52 PM
Waning Crescent, 20% visible
Pressure 29.92 in
Visibility -9999.0 miles
Clouds
Windchill 33 °F
Dew Point 28 °F
Humidity 82%
Rainfall 0.04 in
Snow Depth Not available.
UV Not available.
Pollen Not available.
Air Quality Not available.
Flu Activity Not available.
METAR LHBP 172000Z VRB01KT CAVOK M00/M02 Q1013 NOSIG

More Conditions Fewer Conditions

Pressure 29.92 in
Visibility -9999.0 miles
Clouds
Windchill 33 °F
Dew Point 28 °F
Humidity 82%
Rainfall 0.04 in
Snow Depth Not available.
UV Not available.
Pollen Not available.
Air Quality Not available.
Flu Activity Not available.
METAR LHBP 172000Z VRB01KT CAVOK M00/M02 Q1013 NOSIG

More Conditions Fewer Conditions

10-Day Weather Forecast

Almanac

Astronomy

Dec. 17, 2014 Rise Set
Actual Time
Civil Twilight
Nautical Twilight
Astronomical Twilight
Moon
Length of Visible Light
Length of Day
Tomorrow will be .
, % of the Moon is Illuminated

Today's Extremes

Country Highs Country Lows

Community

WunderPhotos

Upload Photos

1,778,802 photos uploaded!

WunderBlogs® & News

Nearby

Air Quality

  Air Quality AQ Index Pollutant
Not available.

Snow Depth

Station Depth Elevation

Earthquake Activity

City Distance Mag. Time & Date
Minimum magnitude displayed is 2.5.

Coastal Water Temperatures

Place Temperature

Nearby Weather Stations